메인 페이지
METAR-TAF:

METAR-TAF

공항 :

프라하, 체코

프라하 바츨라프 하벨 국제공항

위도: 50-06N, 경도: 014-15E, 고도: 365m

현재 날씨관측

예보는 22분 전, 05:30시(UTC)에 발표되었습니다.
3kt
온도 -5°C
습도 93%
기압 1015 hPa
시정: 6000m
고도 2100ft 상공 구름 조금

METAR: LKPR 200530Z 09003KT 6000 FEW021 M05/M06 Q1015 NOSIG

시각: 06:52 (05:52 UTC)

예보

예보는 52분 전, 05:00시(UTC)에 발표되었습니다.
예보 대상 시간: 20일 06시부터 21일 12시까지 (UTC)
5kt
시정 10km 이상
고도 2000ft 상공 구름 보통
확률 30% :
일시적
20일 06시부터 20일 13시까지 (UTC)
시정: 5000m
고도 1400ft 상공 구름 많음
약한눈, 박무
전환 중
20일 13시부터 20일 16시까지 (UTC)
북동6kt
시정 10km 이상
1500m 미만 상공 구름 및 적란운 없음
전환 중
21일 00시부터 21일 02시까지 (UTC)
6kt

TAF: LKPR 200500Z 2006/2112 08005KT 9999 SCT020 PROB30 TEMPO 2006/2013 5000 -SN BR BKN014 BECMG 2013/2016 04006KT CAVOK BECMG 2100/2102 36006KT

4,000개 이상의 공항 관측 자료 및 예보 (METAR 및 TAF 보고).

지도상에서 검색 가능한 기상관측소가 노란 점과 빨간 점으로 표시되어 있습니다.

기상관측소 명을 보려면 표시 위로 마우스를 이동하세요.

날씨 관측과 예보를 보려면 클릭하세요.

지도 변경 : 확대하려면 엑스 표시가 있는 녹색 버튼, 축소하려면 빼기 표시가 있는 녹색 버튼, 다음 페이지의 지도를 보려면 녹색 화살표를 클릭하세요.


METAR-TAF: